Eugenia B — 9HPE7 — position and weather

sailwx.info

Track history (hours):
 
Tides and Currents Weather Stations Pressure Air Temp Water Temp Dewpoint Dewpoint Depression Visibility Wind Speed Wind Dir Waves Ship Positions

Eugenia B

Last reported at 2018-Feb-02 23:11 UTC. Time now 2018-Jul-22 10:09 UTC.
Position N 01°18' E 104°00'.
Warning: this ship's position is months out of date.

Length 187 m; draft 11.5 m.

Type: Cargo ship. MMSI: 215445000.

Date/timePositionNaut miles runAvg speedWind from/ knotsBaromVisibWave heightAir tempDewpointWater temp
2018-Feb-02 23:11N 01°18' E 104°00'3 0.6
2018-Feb-02 18:44N 01°16' E 103°58'1 5.9
2018-Feb-02 18:30N 01°16' E 103°57'2 3.2
2018-Feb-02 17:57N 01°14' E 103°58'4 7.6
2018-Feb-02 17:26N 01°13' E 103°55'4 9.5
2018-Feb-02 17:00N 01°11' E 103°51'5 9.1
2018-Feb-02 16:30N 01°09' E 103°47'10 9.8
2018-Feb-02 15:30N 01°02' E 103°40'1110.7
2018-Feb-02 14:30N 01°08' E 103°31'610.5
2018-Feb-02 13:57N 01°11' E 103°26'  
Track history (hours):
 
Tides and Currents Weather Stations Pressure Air Temp Water Temp Dewpoint Dewpoint Depression Visibility Wind Speed Wind Dir Waves Ship Positions

Eugenia B

Last reported at 2018-Feb-02 23:11 UTC. Time now 2018-Jul-22 10:09 UTC.
Position N 01°18' E 104°00'.
Warning: this ship's position is months out of date.

Length 187 m; draft 11.5 m.

Type: Cargo ship. MMSI: 215445000.

Date/timePositionNaut miles runAvg speedWind from/ knotsBaromVisibWave heightAir tempDewpointWater temp
2018-Feb-02 23:11N 01°18' E 104°00'3 0.6
2018-Feb-02 18:44N 01°16' E 103°58'1 5.9
2018-Feb-02 18:30N 01°16' E 103°57'2 3.2
2018-Feb-02 17:57N 01°14' E 103°58'4 7.6
2018-Feb-02 17:26N 01°13' E 103°55'4 9.5
2018-Feb-02 17:00N 01°11' E 103°51'5 9.1
2018-Feb-02 16:30N 01°09' E 103°47'10 9.8
2018-Feb-02 15:30N 01°02' E 103°40'1110.7
2018-Feb-02 14:30N 01°08' E 103°31'610.5
2018-Feb-02 13:57N 01°11' E 103°26'  

Dump ship's entire track history